createdAt,value
2018-03-20T00:01:30.320Z,100949.13
2018-03-20T00:03:58.110Z,100953.16
2018-03-20T00:06:25.802Z,100945.56
2018-03-20T00:08:53.474Z,100941.45
2018-03-20T00:11:21.224Z,100941.95
2018-03-20T00:13:48.875Z,100940.98
2018-03-20T00:16:16.622Z,100939.93
2018-03-20T00:18:44.295Z,100947.48
2018-03-20T00:21:12.022Z,100953.38
2018-03-20T00:23:39.702Z,100952.05
2018-03-20T00:26:07.366Z,100948.50
2018-03-20T00:28:35.052Z,100944.72
2018-03-20T00:31:02.708Z,100944.14
2018-03-20T00:33:30.612Z,100947.95
2018-03-20T00:35:58.261Z,100947.27
2018-03-20T00:38:26.094Z,100947.34
2018-03-20T00:40:53.762Z,100957.77
2018-03-20T00:43:21.468Z,100953.34
2018-03-20T00:45:49.169Z,100949.22
2018-03-20T00:48:16.866Z,100952.67
2018-03-20T00:50:44.551Z,100955.02
2018-03-20T00:53:12.202Z,100954.34
2018-03-20T00:55:39.898Z,100959.02
2018-03-20T00:58:07.562Z,100956.23
2018-03-20T01:00:35.264Z,100958.03
2018-03-20T01:03:02.917Z,100958.14
2018-03-20T01:05:30.615Z,100960.99
2018-03-20T01:07:58.274Z,100959.27
2018-03-20T01:10:26.090Z,100965.56
2018-03-20T01:12:53.770Z,100960.69
2018-03-20T01:15:21.458Z,100958.37
2018-03-20T01:17:49.118Z,100954.52
2018-03-20T01:20:16.806Z,100950.27
2018-03-20T01:22:44.474Z,100950.77
2018-03-20T01:25:12.228Z,100954.91
2018-03-20T01:27:39.839Z,100957.34
2018-03-20T01:30:07.610Z,100955.91
2018-03-20T01:32:35.275Z,100957.92
2018-03-20T01:35:02.958Z,100960.78
2018-03-20T01:37:30.621Z,100953.15
2018-03-20T01:39:58.315Z,100952.31
2018-03-20T01:42:25.979Z,100947.48
2018-03-20T01:44:53.755Z,100948.70
2018-03-20T01:47:21.461Z,100960.19
2018-03-20T01:49:49.137Z,100964.16
2018-03-20T01:52:16.838Z,100970.92
2018-03-20T01:54:44.566Z,100970.50
2018-03-20T01:57:12.341Z,100963.25
2018-03-20T01:59:40.034Z,100963.03
2018-03-20T02:02:07.704Z,100958.66
2018-03-20T02:04:35.403Z,100958.50
2018-03-20T02:07:03.086Z,100950.70
2018-03-20T02:09:30.770Z,100950.95
2018-03-20T02:11:58.435Z,100948.25
2018-03-20T02:14:26.238Z,100962.37
2018-03-20T02:16:53.899Z,100961.19
2018-03-20T02:19:21.655Z,100964.25
2018-03-20T02:21:49.343Z,100958.86
2018-03-20T02:24:17.034Z,100961.72
2018-03-20T02:26:44.706Z,100951.84
2018-03-20T02:29:12.401Z,100955.25
2018-03-20T02:31:40.062Z,100954.45
2018-03-20T02:34:07.749Z,100951.75
2018-03-20T02:36:35.416Z,100945.97
2018-03-20T02:39:03.091Z,100939.16
2018-03-20T02:41:30.900Z,100933.45
2018-03-20T02:43:58.591Z,100940.88
2018-03-20T02:46:26.246Z,100949.27
2018-03-20T02:48:53.930Z,100949.10
2018-03-20T02:51:21.598Z,100960.72
2018-03-20T02:53:49.296Z,100971.12
2018-03-20T02:56:16.972Z,100960.35
2018-03-20T02:58:44.661Z,100962.31
2018-03-20T03:01:12.315Z,100969.19
2018-03-20T03:03:40.035Z,100957.73
2018-03-20T03:06:07.711Z,100961.40
2018-03-20T03:08:35.397Z,100954.53
2018-03-20T03:11:03.034Z,100945.33
2018-03-20T03:13:30.726Z,100944.43
2018-03-20T03:15:58.394Z,100960.05
2018-03-20T03:18:26.202Z,100958.36
2018-03-20T03:20:53.872Z,100947.42
2018-03-20T03:23:21.627Z,100954.38
2018-03-20T03:25:49.279Z,100945.77
2018-03-20T03:28:16.958Z,100938.64
2018-03-20T03:30:44.642Z,100931.48
2018-03-20T03:33:12.475Z,100922.40
2018-03-20T03:35:40.151Z,100912.38
2018-03-20T03:38:07.854Z,100903.39
2018-03-20T03:40:35.503Z,100926.68
2018-03-20T03:43:03.234Z,100942.10
2018-03-20T03:45:30.897Z,100934.92
2018-03-20T03:47:58.610Z,100947.39
2018-03-20T03:50:26.303Z,100948.08
2018-03-20T03:52:54.062Z,100946.42
2018-03-20T03:55:21.718Z,100941.47
2018-03-20T03:57:49.410Z,100946.40
2018-03-20T04:00:17.206Z,100950.47
2018-03-20T04:02:44.895Z,100961.78
2018-03-20T04:05:12.617Z,100966.20
2018-03-20T04:07:40.303Z,100960.24
2018-03-20T04:10:07.958Z,100959.91
2018-03-20T04:12:35.685Z,100956.42
2018-03-20T04:15:03.385Z,100952.58
2018-03-20T04:17:31.046Z,100954.86
2018-03-20T04:19:58.730Z,100952.16
2018-03-20T04:22:26.394Z,100952.45
2018-03-20T04:24:54.067Z,100955.11
2018-03-20T04:27:21.727Z,100950.94
2018-03-20T04:29:49.442Z,100947.96
2018-03-20T04:32:17.231Z,100946.51
2018-03-20T04:34:44.910Z,100934.00
2018-03-20T04:37:12.566Z,100928.15
2018-03-20T04:39:40.248Z,100920.20
2018-03-20T04:42:07.909Z,100922.91
2018-03-20T04:44:35.591Z,100935.66
2018-03-20T04:47:03.256Z,100932.59
2018-03-20T04:49:31.006Z,100938.48
2018-03-20T04:51:58.670Z,100936.50
2018-03-20T04:54:26.376Z,100941.70
2018-03-20T04:56:54.035Z,100940.91
2018-03-20T04:59:21.814Z,100936.78
2018-03-20T05:01:49.491Z,100938.56
2018-03-20T05:04:17.209Z,100937.22
2018-03-20T05:06:44.888Z,100937.14
2018-03-20T05:09:12.655Z,100940.70
2018-03-20T05:11:40.364Z,100943.52
2018-03-20T05:14:08.162Z,100952.13
2018-03-20T05:16:35.839Z,100948.42
2018-03-20T05:19:03.522Z,100951.10
2018-03-20T05:24:27.810Z,100956.74
2018-03-20T05:26:55.474Z,100948.89
2018-03-20T05:29:23.157Z,100943.90
2018-03-20T05:31:50.815Z,100946.77
2018-03-20T05:34:18.534Z,100946.39
2018-03-20T05:36:46.199Z,100949.07
2018-03-20T05:39:13.986Z,100951.16
2018-03-20T05:41:41.705Z,100947.86
2018-03-20T05:44:09.414Z,100949.61
2018-03-20T05:49:53.335Z,100965.55
2018-03-20T05:52:21.004Z,100962.64
2018-03-20T05:54:48.713Z,100958.83
2018-03-20T05:57:16.379Z,100963.02
2018-03-20T05:59:44.074Z,100963.38
2018-03-20T06:02:11.819Z,100965.89
2018-03-20T06:04:39.502Z,100962.61
2018-03-20T06:07:07.182Z,100962.29
2018-03-20T06:09:34.894Z,100953.08
2018-03-20T06:12:02.564Z,100960.59
2018-03-20T06:14:30.275Z,100957.60
2018-03-20T06:16:57.952Z,100965.86
2018-03-20T06:19:25.664Z,100968.00
2018-03-20T06:21:53.374Z,100967.88
2018-03-20T06:24:21.083Z,100975.99
2018-03-20T06:26:48.754Z,100977.83
2018-03-20T06:29:16.474Z,100983.86
2018-03-20T06:31:44.274Z,100986.63
2018-03-20T06:34:11.994Z,100988.17
2018-03-20T06:36:39.707Z,100986.37
2018-03-20T06:39:07.423Z,100990.20
2018-03-20T06:41:35.086Z,100992.61
2018-03-20T06:44:02.810Z,100999.25
2018-03-20T06:46:30.567Z,101003.68
2018-03-20T06:48:58.270Z,101000.22
2018-03-20T06:51:26.058Z,101001.11
2018-03-20T06:53:54.003Z,101007.66
2018-03-20T06:56:21.675Z,101010.30
2018-03-20T06:58:49.382Z,101012.45
2018-03-20T07:01:17.062Z,101020.55
2018-03-20T07:03:44.796Z,101020.99
2018-03-20T07:06:12.563Z,101022.57
2018-03-20T07:08:40.271Z,101025.55
2018-03-20T07:11:08.007Z,101030.22
2018-03-20T07:13:35.769Z,101039.63
2018-03-20T07:16:03.431Z,101039.75
2018-03-20T07:18:31.166Z,101031.40
2018-03-20T07:20:58.857Z,101034.92
2018-03-20T07:23:26.615Z,101030.14
2018-03-20T07:25:54.322Z,101035.69
2018-03-20T07:28:22.002Z,101037.73
2018-03-20T07:30:49.818Z,101038.02
2018-03-20T07:33:17.522Z,101034.97
2018-03-20T07:35:45.205Z,101020.58
2018-03-20T07:38:12.871Z,101019.80
2018-03-20T07:40:40.586Z,101028.72
2018-03-20T07:43:08.282Z,101026.28
2018-03-20T07:45:36.137Z,101028.97
2018-03-20T07:48:03.855Z,101035.53
2018-03-20T07:50:31.579Z,101036.94
2018-03-20T07:52:59.338Z,101032.50
2018-03-20T07:55:27.039Z,101037.36
2018-03-20T07:57:54.709Z,101038.95
2018-03-20T08:00:22.438Z,101046.78
2018-03-20T08:02:50.125Z,101055.75
2018-03-20T08:05:17.842Z,101063.48
2018-03-20T08:07:45.546Z,101061.80
2018-03-20T08:10:13.272Z,101054.95
2018-03-20T08:12:40.962Z,101059.81
2018-03-20T08:15:08.699Z,101056.66
2018-03-20T08:17:36.430Z,101058.78
2018-03-20T08:20:04.138Z,101059.50
2018-03-20T08:22:31.827Z,101068.80
2018-03-20T08:24:59.534Z,101072.13
2018-03-20T08:27:27.203Z,101084.70
2018-03-20T08:29:54.898Z,101086.02
2018-03-20T08:32:22.576Z,101096.34
2018-03-20T08:34:50.486Z,101102.22
2018-03-20T08:37:18.152Z,101099.92
2018-03-20T08:39:45.891Z,101098.22
2018-03-20T08:42:13.555Z,101103.02
2018-03-20T08:44:41.338Z,101111.32
2018-03-20T08:47:09.019Z,101108.45
2018-03-20T08:49:36.721Z,101113.07
2018-03-20T08:52:04.421Z,101119.62
2018-03-20T08:54:32.158Z,101121.38
2018-03-20T08:56:59.833Z,101126.78
2018-03-20T08:59:27.535Z,101131.47
2018-03-20T09:01:55.217Z,101129.13
2018-03-20T09:04:22.938Z,101128.37
2018-03-20T09:06:50.674Z,101127.55
2018-03-20T09:09:18.379Z,101129.92
2018-03-20T09:11:46.118Z,101128.55
2018-03-20T09:14:13.846Z,101134.91
2018-03-20T09:16:41.519Z,101131.95
2018-03-20T09:19:09.237Z,101144.69
2018-03-20T09:21:36.989Z,101141.55
2018-03-20T09:24:04.694Z,101145.86
2018-03-20T09:26:32.377Z,101145.77
2018-03-20T09:29:00.074Z,101150.59
2018-03-20T09:31:27.758Z,101150.88
2018-03-20T09:33:55.467Z,101149.66
2018-03-20T09:36:23.142Z,101148.78
2018-03-20T09:38:50.872Z,101154.86
2018-03-20T09:41:18.542Z,101159.05
2018-03-20T09:43:46.272Z,101157.83
2018-03-20T09:46:13.965Z,101159.86
2018-03-20T09:48:41.693Z,101168.22
2018-03-20T09:51:09.339Z,101169.70
2018-03-20T09:53:37.066Z,101173.75
2018-03-20T09:56:04.742Z,101169.73
2018-03-20T09:58:32.455Z,101170.62
2018-03-20T10:01:00.145Z,101175.27
2018-03-20T10:03:27.857Z,101179.16
2018-03-20T10:05:55.505Z,101188.95
2018-03-20T10:08:23.183Z,101196.53
2018-03-20T10:10:50.798Z,101190.61
2018-03-20T10:13:18.427Z,101193.15
2018-03-20T10:15:46.009Z,101198.00
2018-03-20T10:18:13.660Z,101195.23
2018-03-20T10:20:41.263Z,101197.91
2018-03-20T10:23:08.887Z,101202.59
2018-03-20T10:25:36.474Z,101207.32
2018-03-20T10:28:04.270Z,101211.92
2018-03-20T10:30:31.862Z,101215.08
2018-03-20T10:32:59.506Z,101215.59
2018-03-20T10:35:27.121Z,101217.81
2018-03-20T10:37:54.713Z,101213.53
2018-03-20T10:40:22.332Z,101200.66
2018-03-20T10:42:49.923Z,101219.36
2018-03-20T10:45:17.530Z,101224.09
2018-03-20T10:47:45.127Z,101232.45
2018-03-20T10:50:12.734Z,101233.28
2018-03-20T10:52:40.331Z,101234.02
2018-03-20T10:55:08.176Z,101244.42
2018-03-20T10:57:35.823Z,101245.16
2018-03-20T11:00:03.453Z,101240.27
2018-03-20T11:02:31.788Z,101241.00
2018-03-20T11:04:59.375Z,101255.67
2018-03-20T11:07:27.014Z,101258.03
2018-03-20T11:09:54.667Z,101249.52
2018-03-20T11:12:22.287Z,101258.00
2018-03-20T11:14:49.878Z,101250.06
2018-03-20T11:17:17.602Z,101257.95
2018-03-20T11:19:45.211Z,101248.08
2018-03-20T11:22:12.798Z,101253.44
2018-03-20T11:24:40.428Z,101261.41
2018-03-20T11:27:08.030Z,101260.14
2018-03-20T11:29:35.702Z,101264.23
2018-03-20T11:32:03.367Z,101264.64
2018-03-20T11:34:30.954Z,101260.75
2018-03-20T11:36:58.579Z,101272.93
2018-03-20T11:39:26.215Z,101276.69
2018-03-20T11:41:53.839Z,101270.98
2018-03-20T11:44:21.667Z,101277.13
2018-03-20T11:46:49.279Z,101266.89
2018-03-20T11:49:16.930Z,101278.94
2018-03-20T11:51:44.545Z,101280.63
2018-03-20T11:54:12.433Z,101273.73
2018-03-20T11:56:40.068Z,101273.38
2018-03-20T11:59:07.673Z,101273.20
2018-03-20T12:01:35.308Z,101274.43
2018-03-20T12:04:02.906Z,101271.67
2018-03-20T12:06:30.710Z,101283.45
2018-03-20T12:12:03.967Z,101281.53
2018-03-20T12:14:31.622Z,101293.15
2018-03-20T12:16:59.244Z,101288.26
2018-03-20T12:19:26.854Z,101295.43
2018-03-20T12:21:54.478Z,101302.31
2018-03-20T12:24:22.183Z,101290.56
2018-03-20T12:26:49.821Z,101288.84
2018-03-20T12:29:17.418Z,101287.59
2018-03-20T12:31:45.050Z,101300.27
2018-03-20T12:34:12.651Z,101304.73
2018-03-20T12:36:40.268Z,101300.30
2018-03-20T12:39:08.067Z,101305.36
2018-03-20T12:41:35.810Z,101298.23
2018-03-20T12:44:03.455Z,101305.83
2018-03-20T12:46:31.055Z,101313.12
2018-03-20T12:48:58.817Z,101310.35
2018-03-20T12:51:26.416Z,101316.20
2018-03-20T12:53:54.027Z,101306.12
2018-03-20T12:56:21.654Z,101301.61
2018-03-20T12:58:49.291Z,101307.85
2018-03-20T13:01:16.891Z,101318.84
2018-03-20T13:03:44.513Z,101313.70
2018-03-20T13:06:12.112Z,101314.38
2018-03-20T13:08:39.905Z,101315.47
2018-03-20T13:11:07.506Z,101316.12
2018-03-20T13:13:35.136Z,101326.38
2018-03-20T13:16:02.822Z,101333.61
2018-03-20T13:18:30.448Z,101328.70
2018-03-20T13:20:58.047Z,101328.33
2018-03-20T13:23:25.709Z,101326.80
2018-03-20T13:25:53.332Z,101323.62
2018-03-20T13:28:20.954Z,101326.71
2018-03-20T13:30:48.581Z,101326.70
2018-03-20T13:33:16.203Z,101334.89
2018-03-20T13:35:43.807Z,101351.41
2018-03-20T13:38:11.436Z,101350.30
2018-03-20T13:40:39.043Z,101353.27
2018-03-20T13:43:06.673Z,101351.51
2018-03-20T13:45:34.275Z,101349.06
2018-03-20T13:48:01.907Z,101354.33
2018-03-20T13:50:29.525Z,101349.88
2018-03-20T13:52:57.247Z,101348.00
2018-03-20T13:55:24.881Z,101352.32
2018-03-20T13:57:52.518Z,101363.92
2018-03-20T14:00:20.135Z,101356.23
2018-03-20T14:02:47.766Z,101351.88
2018-03-20T14:05:15.414Z,101359.52
2018-03-20T14:07:43.048Z,101368.87
2018-03-20T14:10:10.832Z,101368.13
2018-03-20T14:12:38.454Z,101371.02
2018-03-20T14:15:06.074Z,101359.73
2018-03-20T14:17:33.770Z,101356.36
2018-03-20T14:20:01.433Z,101349.06
2018-03-20T14:22:29.076Z,101381.32
2018-03-20T14:24:56.687Z,101377.74
2018-03-20T14:27:24.330Z,101374.38
2018-03-20T14:29:51.931Z,101382.48
2018-03-20T14:32:19.556Z,101395.87
2018-03-20T14:34:47.168Z,101393.95
2018-03-20T14:37:14.804Z,101395.36
2018-03-20T14:39:42.410Z,101405.81
2018-03-20T14:42:10.058Z,101404.59
2018-03-20T14:44:37.669Z,101403.19
2018-03-20T14:47:05.359Z,101402.63
2018-03-20T14:49:32.959Z,101410.66
2018-03-20T14:52:00.614Z,101404.33
2018-03-20T14:54:28.217Z,101411.80
2018-03-20T14:56:55.842Z,101401.98
2018-03-20T14:59:23.460Z,101416.84
2018-03-20T15:01:51.148Z,101422.58
2018-03-20T15:04:18.735Z,101417.84
2018-03-20T15:06:46.495Z,101432.95
2018-03-20T15:09:14.219Z,101433.80
2018-03-20T15:11:41.854Z,101438.54
2018-03-20T15:14:09.466Z,101442.77
2018-03-20T15:16:37.104Z,101449.26
2018-03-20T15:19:04.719Z,101455.41
2018-03-20T15:21:32.355Z,101468.11
2018-03-20T15:23:59.959Z,101453.91
2018-03-20T15:26:27.739Z,101453.55
2018-03-20T15:28:55.395Z,101468.34
2018-03-20T15:31:23.059Z,101472.91
2018-03-20T15:33:50.685Z,101472.96
2018-03-20T15:36:18.307Z,101470.89
2018-03-20T15:38:45.972Z,101468.83
2018-03-20T15:41:13.641Z,101476.82
2018-03-20T15:43:41.330Z,101476.75
2018-03-20T15:46:08.976Z,101485.94
2018-03-20T15:48:36.606Z,101488.69
2018-03-20T15:51:04.240Z,101487.84
2018-03-20T15:53:31.855Z,101490.86
2018-03-20T15:55:59.522Z,101495.25
2018-03-20T15:58:27.143Z,101496.80
2018-03-20T16:00:54.745Z,101503.63
2018-03-20T16:03:22.494Z,101506.53
2018-03-20T16:05:50.137Z,101514.53
2018-03-20T16:08:17.710Z,101515.33
2018-03-20T16:10:45.398Z,101519.36
2018-03-20T16:13:13.008Z,101521.89
2018-03-20T16:15:40.611Z,101525.84
2018-03-20T16:18:08.390Z,101527.50
2018-03-20T16:20:36.055Z,101540.07
2018-03-20T16:23:03.691Z,101532.73
2018-03-20T16:25:31.343Z,101548.53
2018-03-20T16:27:58.932Z,101550.88
2018-03-20T16:30:26.631Z,101551.13
2018-03-20T16:32:54.313Z,101552.99
2018-03-20T16:35:22.150Z,101562.52
2018-03-20T16:37:49.867Z,101557.34
2018-03-20T16:40:17.531Z,101557.98
2018-03-20T16:42:45.138Z,101561.47
2018-03-20T16:45:12.765Z,101566.40
2018-03-20T16:47:40.550Z,101587.04
2018-03-20T16:50:08.201Z,101581.99
2018-03-20T16:52:35.810Z,101589.52
2018-03-20T16:55:03.454Z,101597.47
2018-03-20T16:57:31.137Z,101597.77
2018-03-20T16:59:58.850Z,101603.14
2018-03-20T17:02:26.522Z,101603.48
2018-03-20T17:04:54.309Z,101607.06
2018-03-20T17:07:21.867Z,101622.39
2018-03-20T17:09:49.511Z,101626.86
2018-03-20T17:12:17.132Z,101628.08
2018-03-20T17:14:44.716Z,101626.69
2018-03-20T17:17:12.332Z,101636.38
2018-03-20T17:19:39.927Z,101638.89
2018-03-20T17:22:07.574Z,101638.10
2018-03-20T17:24:35.158Z,101640.42
2018-03-20T17:27:02.777Z,101644.56
2018-03-20T17:29:30.379Z,101642.84
2018-03-20T17:31:58.015Z,101643.53
2018-03-20T17:34:25.700Z,101651.22
2018-03-20T17:36:53.361Z,101647.20
2018-03-20T17:39:20.972Z,101656.63
2018-03-20T17:41:48.586Z,101655.22
2018-03-20T17:44:16.193Z,101660.16
2018-03-20T17:46:43.826Z,101662.09
2018-03-20T17:49:11.435Z,101658.06
2018-03-20T17:51:39.094Z,101674.59
2018-03-20T17:54:06.713Z,101671.56
2018-03-20T17:56:34.493Z,101680.06
2018-03-20T17:59:02.090Z,101686.27
2018-03-20T18:01:29.718Z,101687.44
2018-03-20T18:03:57.332Z,101691.16
2018-03-20T18:06:24.966Z,101693.89
2018-03-20T18:08:52.577Z,101701.77
2018-03-20T18:11:20.402Z,101714.28
2018-03-20T18:13:48.076Z,101716.03
2018-03-20T18:16:15.696Z,101714.72
2018-03-20T18:18:43.305Z,101717.44
2018-03-20T18:21:10.939Z,101721.23
2018-03-20T18:23:38.606Z,101721.59
2018-03-20T18:26:06.273Z,101729.38
2018-03-20T18:28:33.910Z,101734.50
2018-03-20T18:31:01.498Z,101740.42
2018-03-20T18:33:29.115Z,101741.53
2018-03-20T18:35:56.758Z,101746.23
2018-03-20T18:38:24.395Z,101755.20
2018-03-20T18:40:52.010Z,101759.09
2018-03-20T18:43:19.630Z,101759.20
2018-03-20T18:45:47.263Z,101763.81
2018-03-20T18:48:14.956Z,101761.84
2018-03-20T18:50:42.733Z,101771.42
2018-03-20T18:53:10.340Z,101772.31
2018-03-20T18:55:37.983Z,101772.67
2018-03-20T18:58:05.595Z,101781.18
2018-03-20T19:00:33.198Z,101786.80
2018-03-20T19:03:00.823Z,101788.91
2018-03-20T19:05:28.453Z,101792.86
2018-03-20T19:07:56.071Z,101795.03
2018-03-20T19:10:23.792Z,101802.53
2018-03-20T19:12:51.404Z,101799.67
2018-03-20T19:15:19.031Z,101811.88
2018-03-20T19:17:46.600Z,101809.78
2018-03-20T19:20:14.397Z,101816.52
2018-03-20T19:22:41.961Z,101823.36
2018-03-20T19:25:09.674Z,101827.83
2018-03-20T19:27:37.287Z,101832.56
2018-03-20T19:30:04.915Z,101831.25
2018-03-20T19:32:32.515Z,101838.56
2018-03-20T19:35:00.335Z,101840.66
2018-03-20T19:37:27.927Z,101849.22
2018-03-20T19:39:55.575Z,101855.67
2018-03-20T19:42:23.203Z,101864.52
2018-03-20T19:44:50.827Z,101868.63
2018-03-20T19:47:18.635Z,101872.61
2018-03-20T19:49:46.234Z,101871.70
2018-03-20T19:52:13.884Z,101871.75
2018-03-20T19:54:41.671Z,101875.98
2018-03-20T19:57:09.320Z,101881.11
2018-03-20T19:59:36.914Z,101884.40
2018-03-20T20:02:04.568Z,101893.46
2018-03-20T20:04:32.159Z,101891.33
2018-03-20T20:06:59.766Z,101897.27
2018-03-20T20:09:27.414Z,101899.30
2018-03-20T20:11:55.007Z,101902.38
2018-03-20T20:14:22.647Z,101912.09
2018-03-20T20:16:50.251Z,101908.72
2018-03-20T20:19:17.883Z,101918.05
2018-03-20T20:21:45.682Z,101915.37
2018-03-20T20:24:13.290Z,101910.47
2018-03-20T20:26:40.882Z,101924.46
2018-03-20T20:29:08.566Z,101920.88
2018-03-20T20:31:36.171Z,101930.81
2018-03-20T20:34:03.791Z,101928.52
2018-03-20T20:36:31.396Z,101934.89
2018-03-20T20:38:59.077Z,101937.25
2018-03-20T20:41:26.696Z,101947.17
2018-03-20T20:43:54.331Z,101945.25
2018-03-20T20:46:21.926Z,101952.11
2018-03-20T20:48:49.559Z,101951.59
2018-03-20T20:51:17.151Z,101951.21
2018-03-20T20:53:44.766Z,101955.38
2018-03-20T20:56:12.361Z,101964.31
2018-03-20T20:58:40.051Z,101961.55
2018-03-20T21:01:07.635Z,101963.48
2018-03-20T21:03:35.308Z,101972.09
2018-03-20T21:06:02.934Z,101973.11
2018-03-20T21:08:30.577Z,101971.36
2018-03-20T21:10:58.148Z,101977.00
2018-03-20T21:13:25.777Z,101984.36
2018-03-20T21:15:53.421Z,101973.81
2018-03-20T21:18:21.016Z,101981.52
2018-03-20T21:20:48.650Z,101979.34
2018-03-20T21:23:16.393Z,101981.41
2018-03-20T21:25:44.087Z,101988.55
2018-03-20T21:28:11.682Z,101983.64
2018-03-20T21:30:39.295Z,101984.69
2018-03-20T21:33:06.911Z,101991.70
2018-03-20T21:35:34.539Z,101984.11
2018-03-20T21:38:02.134Z,101982.45
2018-03-20T21:40:29.778Z,101987.25
2018-03-20T21:42:57.399Z,101988.67
2018-03-20T21:45:25.030Z,101984.09
2018-03-20T21:47:52.665Z,101984.50
2018-03-20T21:50:20.349Z,101987.14
2018-03-20T21:52:47.963Z,101990.45
2018-03-20T21:55:15.594Z,101990.01
2018-03-20T21:57:43.208Z,101993.91
2018-03-20T22:00:10.851Z,101997.56
2018-03-20T22:02:38.459Z,102001.42
2018-03-20T22:05:06.109Z,102000.41
2018-03-20T22:07:33.722Z,102006.28
2018-03-20T22:10:01.353Z,102011.20
2018-03-20T22:12:29.083Z,102014.03
2018-03-20T22:14:56.722Z,102010.35
2018-03-20T22:17:24.506Z,102017.61
2018-03-20T22:19:52.144Z,102015.36
2018-03-20T22:22:19.727Z,102017.08
2018-03-20T22:24:47.447Z,102023.76
2018-03-20T22:27:15.038Z,102021.53
2018-03-20T22:29:42.774Z,102028.70
2018-03-20T22:32:10.360Z,102022.05
2018-03-20T22:34:37.979Z,102022.45
2018-03-20T22:37:05.623Z,102028.46
2018-03-20T22:39:33.258Z,102027.22
2018-03-20T22:42:00.858Z,102029.66
2018-03-20T22:44:28.477Z,102029.83
2018-03-20T22:46:56.095Z,102038.95
2018-03-20T22:49:23.761Z,102039.91
2018-03-20T22:51:51.406Z,102046.36
2018-03-20T22:54:18.994Z,102050.09
2018-03-20T22:56:46.641Z,102053.02
2018-03-20T22:59:14.266Z,102052.38
2018-03-20T23:01:41.894Z,102049.05
2018-03-20T23:04:09.489Z,102053.23
2018-03-20T23:06:37.153Z,102054.92
2018-03-20T23:09:04.737Z,102060.44
2018-03-20T23:11:32.374Z,102057.05
2018-03-20T23:13:59.947Z,102059.44
2018-03-20T23:16:27.593Z,102057.47
2018-03-20T23:18:55.195Z,102058.31
2018-03-20T23:21:22.821Z,102063.33
2018-03-20T23:23:50.625Z,102060.34
2018-03-20T23:26:18.245Z,102062.59
2018-03-20T23:28:45.877Z,102068.23
2018-03-20T23:31:13.515Z,102069.39
2018-03-20T23:33:41.094Z,102072.31
2018-03-20T23:36:08.871Z,102077.23
2018-03-20T23:38:36.469Z,102074.59
2018-03-20T23:41:04.085Z,102067.53
2018-03-20T23:43:31.679Z,102072.97
2018-03-20T23:45:59.294Z,102076.89
2018-03-20T23:48:26.899Z,102080.03
2018-03-20T23:50:54.527Z,102086.75
2018-03-20T23:53:22.120Z,102080.16
2018-03-20T23:55:49.736Z,102083.03
2018-03-20T23:58:17.331Z,102081.16
